Latest Coastal Weather Observations for Kalumburu

IDW60701

Issued at 7:22 pm WST Thursday 18 December 2014 (issued every 10 minutes, with the page automatically refreshed every 10 minutes)

About coastal observations | Map of coastal stations | Coastal observations for WA | Marine services | Other Formats
Station Details ID: 001019 Name: KALUMBURU Lat: -14.30 Lon: 126.65 Height: 23.0 m
Data from the previous 72 hours. | See also: Recent months at Kalumburu
Date/Time
WST
Temp

°C
Wind Pressure Rain
since 9am
mm
Weather Cloud Vis
km
Sea
Height
m
Swell
Dir
 
Speed
knots
Gust
knots
hPa Trend Height
m
Period
s
Dir
18/07:00pm 31.0 NW 5 8 1007.4 - 0.0 - - - - - - -
18/06:30pm 31.9 WNW 6 8 1007.1 - 0.0 - - - - - - -
18/06:00pm 31.9 NW 5 8 1006.8 - 0.0 - - - - - - -
18/05:30pm 32.2 N 9 14 1006.0 - 0.0 - - - - - - -
18/05:00pm 32.9 N 9 12 1005.4 - 0.0 - - - - - - -
18/04:30pm 33.2 N 10 14 1005.2 - 0.0 - - - - - - -
18/04:00pm 33.8 N 10 15 1004.9 - 0.0 - - - - - - -
18/03:30pm 34.0 N 10 15 1004.8 - 0.0 - - - - - - -
18/03:00pm 34.2 N 10 15 1005.0 - 0.0 - - - - - - -
18/02:30pm 34.8 N 9 13 1005.5 - 0.0 - - - - - - -
18/01:30pm 34.9 NNW 7 10 1005.8 - 0.0 - - - - - - -
18/01:00pm 35.4 NNW 6 9 1006.5 - 0.0 - - - - - - -
18/12:30pm 35.4 NNW 3 6 1007.0 - 0.0 - - - - - - -
18/12:00pm 35.1 S 4 8 1007.7 - 0.0 - - - - - - -
18/11:30am 34.7 WSW 4 6 1008.3 - 0.0 - - - - - - -
18/11:00am 34.5 SSW 4 7 1008.6 - 0.0 - - - - - - -
18/10:30am 34.0 S 5 8 1008.9 - 0.0 - - - - - - -
18/10:00am 33.2 WNW 4 6 1009.3 - 0.0 - - - - - - -
18/09:30am 32.8 W 5 8 1009.6 - 0.0 - - - - - - -
18/09:00am 32.5 W 4 7 1009.8 - 7.8 - - - - - - -
18/08:30am 31.0 WSW 5 8 1009.6 - 7.8 - - - - - - -
18/08:00am 31.1 S 4 6 1009.6 - 7.8 - - - - - - -
18/07:30am 30.0 S 4 6 1009.6 - 7.8 - - - - - - -
18/07:00am 29.0 S 3 5 1009.4 - 7.8 - - - - - - -
18/06:30am 27.6 SSE 2 4 1008.8 - 7.6 - - - - - - -
18/06:00am 25.5 CALM 0 0 1008.4 - 7.6 - - - - - - -
18/05:30am 24.5 CALM 0 0 1008.0 - 7.6 - - - - - - -
18/05:00am 24.1 CALM 0 0 1007.6 - 7.6 - - - - - - -
18/04:30am 24.3 CALM 0 0 1007.2 - 7.6 - - - - - - -
18/04:00am 24.3 S 1 3 1006.8 - 7.6 - - - - - - -
18/03:30am 24.4 CALM 0 0 1006.6 - 7.6 - - - - - - -
18/03:00am 24.5 SSE 3 5 1006.6 - 7.6 - - - - - - -
18/02:30am 24.4 CALM 0 0 1006.3 - 7.6 - - - - - - -
18/02:00am 24.5 CALM 0 0 1006.0 - 7.6 - - - - - - -
18/01:30am 24.5 CALM 0 0 1006.1 - 7.6 - - - - - - -
18/01:00am 24.7 CALM 0 0 1006.1 - 7.6 - - - - - - -
18/12:30am 24.7 CALM 0 0 1006.2 - 7.6 - - - - - - -
18/12:00am 24.9 SE 2 3 1006.6 - 7.6 - - - - - - -
 
Date/Time
WST
Temp

°C
Wind Pressure Rain
since 9am
mm
Weather Cloud Vis
km
Sea
Height
m
Swell
Dir
 
Speed
knots
Gust
knots
hPa Trend Height
m
Period
s
Dir
17/11:30pm 25.2 SW 2 5 1007.0 - 7.6 - - - - - - -
17/11:00pm 25.2 SSE 3 6 1007.2 - 7.6 - - - - - - -
17/10:30pm 25.3 SSW 3 5 1007.6 - 7.6 - - - - - - -
17/10:00pm 25.0 SSW 2 4 1007.8 - 7.6 - - - - - - -
17/09:30pm 25.0 CALM 0 0 1007.7 - 7.6 - - - - - - -
17/09:00pm 24.9 CALM 0 0 1007.7 - 7.6 - - - - - - -
17/08:30pm 25.2 W 2 4 1007.6 - 7.6 - - - - - - -
17/08:00pm 25.2 CALM 0 0 1007.0 - 7.6 - - - - - - -
17/07:30pm 24.9 SSE 1 3 1006.9 - 7.6 - - - - - - -
17/07:00pm 25.1 S 3 4 1006.8 - 7.6 - - - - - - -
17/06:30pm 25.1 SSE 4 6 1006.9 - 7.6 - - - - - - -
17/06:00pm 25.0 SSE 5 7 1006.7 - 7.6 - - - - - - -
17/05:30pm 24.9 S 4 6 1006.4 - 7.6 - - - - - - -
17/05:00pm 24.6 S 3 6 1006.0 - 7.6 - - - - - - -
17/04:30pm 25.0 SSE 4 6 1005.4 - 7.6 - - - - - - -
17/04:00pm 24.7 ESE 4 5 1005.1 - 7.6 - - - - - - -
17/03:30pm 24.6 SSW 6 10 1004.7 - 7.6 - - - - - - -
17/03:00pm 28.4 ESE 14 24 1004.8 - 0.0 - - - - - - -
17/02:58pm 29.4 ESE 12 24 1004.8 - 0.0 - - - - - - -
17/02:30pm 34.6 NW 7 10 1003.8 - 0.0 - - - - - - -
17/02:00pm 34.5 NNW 11 15 1003.4 - 0.0 - - - - - - -
17/01:30pm 34.9 NNW 8 13 1003.8 - 0.0 - - - - - - -
17/01:00pm 35.0 NNW 8 11 1004.2 - 0.0 - - - - - - -
17/12:30pm 35.8 WNW 6 11 1004.9 - 0.0 - - - - - - -
17/12:00pm 35.7 WSW 5 9 1005.5 - 0.0 - - - - - - -
17/11:30am 34.9 WNW 5 7 1006.1 - 0.0 - - - - - - -
17/11:00am 34.5 WNW 4 8 1006.5 - 0.0 - - - - - - -
17/10:30am 34.8 WSW 4 6 1006.9 - 0.0 - - - - - - -
17/10:00am 33.7 WNW 3 6 1007.3 - 0.0 - - - - - - -
17/09:30am 32.4 SW 3 7 1007.6 - 0.0 - - - - - - -
17/09:00am 31.7 S 2 6 1007.8 - 3.8 - - - - - - -
17/08:30am 30.8 S 3 4 1007.5 - 3.8 - - - - - - -
17/08:00am 30.2 SSE 3 4 1007.5 - 3.8 - - - - - - -
17/07:30am 29.6 S 2 4 1007.5 - 3.8 - - - - - - -
17/07:00am 28.9 CALM 0 0 1007.3 - 3.8 - - - - - - -
17/06:30am 27.9 CALM 0 0 1006.8 - 3.8 - - - - - - -
17/06:00am 26.6 CALM 0 0 1006.5 - 3.8 - - - - - - -
17/05:30am 25.9 CALM 0 0 1006.0 - 3.8 - - - - - - -
17/05:00am 25.5 CALM 0 0 1005.6 - 3.8 - - - - - - -
17/04:30am 25.8 CALM 0 0 1005.3 - 3.8 - - - - - - -
17/04:00am 25.7 CALM 0 0 1005.1 - 3.8 - - - - - - -
17/03:30am 25.9 CALM 0 0 1005.0 - 3.8 - - - - - - -
17/03:00am 26.0 CALM 0 0 1004.9 - 3.8 - - - - - - -
17/02:30am 26.0 CALM 0 0 1004.9 - 3.8 - - - - - - -
17/02:00am 26.3 CALM 0 0 1004.9 - 3.8 - - - - - - -
17/01:30am 26.7 CALM 0 0 1004.9 - 3.8 - - - - - - -
17/01:00am 27.4 S 3 5 1004.8 - 3.8 - - - - - - -
17/12:30am 27.7 S 3 5 1005.2 - 3.8 - - - - - - -
17/12:00am 28.2 S 4 6 1005.7 - 3.8 - - - - - - -
 
Date/Time
WST
Temp

°C
Wind Pressure Rain
since 9am
mm
Weather Cloud Vis
km
Sea
Height
m
Swell
Dir
 
Speed
knots
Gust
knots
hPa Trend Height
m
Period
s
Dir
16/11:30pm 28.8 S 5 6 1006.2 - 3.8 - - - - - - -
16/11:00pm 29.0 W 3 4 1006.6 - 3.8 - - - - - - -
16/10:30pm 28.9 CALM 0 0 1007.0 - 3.8 - - - - - - -
16/10:00pm 28.9 NNW 2 4 1007.1 - 3.8 - - - - - - -
16/09:30pm 29.0 CALM 0 0 1007.5 - 3.8 - - - - - - -
16/09:00pm 29.3 N 1 4 1007.3 - 3.8 - - - - - - -
16/08:30pm 29.9 N 1 4 1007.1 - 3.8 - - - - - - -
16/08:00pm 30.5 NW 4 6 1007.0 - 3.8 - - - - - - -
16/07:30pm 30.6 NW 3 5 1006.9 - 3.8 - - - - - - -
16/07:00pm 30.7 NNW 5 8 1006.1 - 3.8 - - - - - - -
16/06:30pm 31.1 NW 5 7 1005.5 - 3.8 - - - - - - -
16/06:00pm 31.3 NW 4 6 1004.2 - 3.8 - - - - - - -
16/05:30pm 31.8 NW 6 8 1003.6 - 3.8 - - - - - - -
16/05:00pm 30.9 CALM 0 0 1003.5 - 3.8 - - - - - - -
16/04:30pm 30.8 NE 1 4 1003.2 - 3.8 - - - - - - -
16/04:00pm 29.8 N 1 4 1002.9 - 3.8 - - - - - - -
16/03:30pm 29.4 NW 5 9 1003.4 - 3.8 - - - - - - -
16/03:00pm 29.8 N 17 22 1003.4 - 3.0 Rain - - - - - -
16/02:44pm 32.9 NNE 8 21 1003.4 - 0.0 - - - - - - -
16/02:30pm 36.8 NW 6 8 1003.5 - 0.0 - - - - - - -
16/02:00pm 36.7 N 4 6 1003.8 - 0.0 - - - - - - -
16/01:30pm 36.7 SW 3 6 1004.5 - 0.0 - - - - - - -
16/01:00pm 36.2 N 3 4 1005.0 - 0.0 - - - - - - -
16/12:30pm 35.4 SW 3 6 1005.4 - 0.0 - - - - - - -
16/12:00pm 35.5 S 4 7 1006.0 - 0.0 - - - - - - -
16/11:30am 35.4 SSE 4 7 1006.6 - 0.0 - - - - - - -
16/11:00am 34.4 S 4 6 1007.2 - 0.0 - - - - - - -
16/10:30am 34.0 S 2 5 1007.7 - 0.0 - - - - - - -
16/10:00am 33.7 SW 3 6 1008.1 - 0.0 - - - - - - -
16/09:30am 33.8 W 5 7 1008.4 - 0.0 - - - - - - -
16/09:00am 33.1 S 4 5 1008.6 - 25.2 - - - - - - -
16/08:30am 32.0 SSW 4 7 1008.8 - 25.2 - - - - - - -
16/08:00am 31.7 SSW 5 7 1008.7 - 25.2 - - - - - - -
16/07:30am 31.0 S 4 6 1008.6 - 25.2 - - - - - - -
16/07:00am 30.1 S 1 4 1008.5 - 25.2 - - - - - - -
16/06:30am 29.4 CALM 0 0 1008.2 - 25.2 - - - - - - -
16/06:00am 27.2 CALM 0 0 1007.8 - 25.2 - - - - - - -
16/05:30am 26.0 CALM 0 0 1007.3 - 25.2 - - - - - - -
16/05:00am 25.7 CALM 0 0 1006.9 - 25.2 - - - - - - -
16/04:30am 25.6 CALM 0 0 1006.5 - 25.2 - - - - - - -
16/04:00am 25.7 CALM 0 0 1005.9 - 25.2 - - - - - - -
16/03:30am 25.9 CALM 0 0 1005.6 - 25.2 - - - - - - -
16/03:00am 26.0 CALM 0 3 1005.5 - 25.2 - - - - - - -
16/02:30am 26.1 CALM 0 0 1005.5 - 25.2 - - - - - - -
16/02:00am 26.1 CALM 0 4 1005.4 - 25.2 - - - - - - -
16/01:30am 26.1 CALM 0 0 1005.3 - 25.2 - - - - - - -
16/01:00am 26.3 CALM 0 0 1005.6 - 25.2 - - - - - - -
16/12:30am 26.5 CALM 0 0 1005.6 - 25.2 - - - - - - -
16/12:00am 26.5 CALM 0 0 1006.0 - 25.2 - - - - - - -
 
Date/Time
WST
Temp

°C
Wind Pressure Rain
since 9am
mm
Weather Cloud Vis
km
Sea
Height
m
Swell
Dir
 
Speed
knots
Gust
knots
hPa Trend Height
m
Period
s
Dir
15/11:30pm 26.3 CALM 0 0 1006.4 - 25.2 - - - - - - -
15/11:00pm 26.2 CALM 0 0 1007.0 - 25.2 - - - - - - -
15/10:30pm 26.3 CALM 0 0 1007.0 - 25.2 - - - - - - -
15/10:00pm 26.9 S 4 6 1007.3 - 25.2 - - - - - - -
15/09:30pm 26.8 S 2 6 1007.5 - 25.2 - - - - - - -
15/09:00pm 26.6 CALM 0 0 1007.1 - 25.2 - - - - - - -
15/08:30pm 26.7 NE 2 3 1006.9 - 25.2 - - - - - - -
15/08:00pm 26.6 CALM 0 0 1007.0 - 25.2 - - - - - - -
15/07:30pm 26.6 CALM 0 0 1007.1 - 25.2 - - - - - - -

Other Formats:

Comma delimited format used in spreadsheet applications
http://www.bom.gov.au/fwo/IDW60701/IDW60701.94100.axf

JavaScript Object Notation format (JSON) in row-major order
http://www.bom.gov.au/fwo/IDW60701/IDW60701.94100.json